LIPK/FRL METAR and TAF weather

Enter ICAO airport designator
Station Type Date Time Source
LIPK METAR 2019/05/24 15:50 UTC NOAA

LIPK 241550Z 11006KT CAVOK 24/13 Q1011


Station Type Date Time Source
LIPK Decoded METAR 2019/05/24 15:50 UTC NOAA

Forli, Italy (LIPK) 44-12N 012-04E 32M
May 24, 2019 - 11:50 AM EDT / 2019.05.24 1550 UTC
Wind: from the ESE (110 degrees) at 7 MPH (6 KT):0
Visibility: greater than 7 mile(s):0
Temperature: 75 F (24 C)
Dew Point: 55 F (13 C)
Relative Humidity: 50%
Pressure (altimeter): 29.85 in. Hg (1011 hPa)
ob: LIPK 241550Z 11006KT CAVOK 24/13 Q1011
cycle: 16

Station Type Date Time Source
LIPK TAF 2015/04/01 12:08 UTC NOAA

TAF LIPK 011301Z 0112/0212 30020G32KT CAVOK
BECMG 0115/0117 30012KT
BECMG 0117/0119 VRB05KT

Example: see airport list